Time;durP1;ratioP1;P1;durP2;ratioP2;P2;SDS_P1;SDS_P2;PMS_P1;PMS_P2;Temp;Humidity;BMP_temperature;BMP_pressure;BME280_temperature;BME280_humidity;BME280_pressure;Samples;Min_cycle;Max_cycle;Signal;HPM_P1;HPM_P2
2022/05/29 00:01:38;;;;;;;0.10;0.10;;;;;;;;;;5077611;28;20664;-63
2022/05/29 00:04:04;;;;;;;0.10;0.10;;;;;;;;;;5072072;28;20250;-64
2022/05/29 00:06:33;;;;;;;0.10;0.10;;;;;;;;;;5076207;28;20291;-62
2022/05/29 00:09:01;;;;;;;0.10;0.10;;;;;;;;;;5072134;28;20328;-63
2022/05/29 00:11:27;;;;;;;0.00;0.00;;;;;;;;;;5075316;28;20305;-63
2022/05/29 00:13:53;;;;;;;0.10;0.10;;;;;;;;;;5073786;28;20206;-62
2022/05/29 00:16:20;;;;;;;0.10;0.10;;;;;;;;;;5073009;28;20242;-63
2022/05/29 00:18:46;;;;;;;0.10;0.10;;;;;;;;;;5075715;28;20245;-64
2022/05/29 00:21:13;;;;;;;0.10;0.10;;;;;;;;;;5070853;28;20251;-64
2022/05/29 00:23:40;;;;;;;0.10;0.10;;;;;;;;;;5077624;28;20212;-64
2022/05/29 00:26:08;;;;;;;0.10;0.10;;;;;;;;;;5069498;28;20238;-63
2022/05/29 00:28:35;;;;;;;0.10;0.10;;;;;;;;;;5078776;28;20271;-63
2022/05/29 00:31:01;;;;;;;0.10;0.10;;;;;;;;;;5067151;28;20257;-63
2022/05/29 00:33:27;;;;;;;0.10;0.10;;;;;;;;;;5080291;28;20251;-63
2022/05/29 00:35:54;;;;;;;0.10;0.10;;;;;;;;;;5066261;28;20565;-63
2022/05/29 00:38:20;;;;;;;0.10;0.10;;;;;;;;;;5082227;28;20230;-63
2022/05/29 00:40:48;;;;;;;0.10;0.10;;;;;;;;;;5064166;28;20294;-63
2022/05/29 00:43:16;;;;;;;0.10;0.10;;;;;;;;;;5083369;28;20208;-64
2022/05/29 00:45:45;;;;;;;0.10;0.10;;;;;;;;;;5063122;28;20291;-63
2022/05/29 00:48:14;;;;;;;0.10;0.10;;;;;;;;;;5083898;28;20252;-63
2022/05/29 00:50:40;;;;;;;0.10;0.10;;;;;;;;;;5062271;28;20303;-63
2022/05/29 00:53:07;;;;;;;0.10;0.10;;;;;;;;;;5085270;28;20219;-63
2022/05/29 00:55:33;;;;;;;0.10;0.10;;;;;;;;;;5060730;28;20294;-64
2022/05/29 00:58:00;;;;;;;0.10;0.10;;;;;;;;;;5086938;28;20207;-64
2022/05/29 01:00:29;;;;;;;0.10;0.10;;;;;;;;;;5058967;28;20256;-63
2022/05/29 01:02:57;;;;;;;0.10;0.10;;;;;;;;;;5088494;28;20208;-64
2022/05/29 01:05:24;;;;;;;0.10;0.10;;;;;;;;;;5057474;28;20539;-63
2022/05/29 01:07:53;;;;;;;0.10;0.10;;;;;;;;;;5089842;28;20265;-63
2022/05/29 01:10:19;;;;;;;0.10;0.10;;;;;;;;;;5056488;28;20213;-63
2022/05/29 01:12:50;;;;;;;0.10;0.10;;;;;;;;;;5090605;28;20207;-63
2022/05/29 01:15:21;;;;;;;0.10;0.10;;;;;;;;;;5055733;28;20242;-63
2022/05/29 01:17:51;;;;;;;0.10;0.10;;;;;;;;;;5090336;28;20213;-64
2022/05/29 01:20:32;;;;;;;0.10;0.10;;;;;;;;;;5055872;28;20203;-63
2022/05/29 01:23:10;;;;;;;0.10;0.10;;;;;;;;;;5083669;28;20216;-63
2022/05/29 01:25:46;;;;;;;0.10;0.10;;;;;;;;;;5060850;28;20285;-63
2022/05/29 01:28:14;;;;;;;0.10;0.10;;;;;;;;;;5083393;28;20560;-63
2022/05/29 01:30:43;;;;;;;0.10;0.10;;;;;;;;;;5061589;28;20269;-63
2022/05/29 01:33:17;;;;;;;0.10;0.10;;;;;;;;;;5083885;28;20204;-64
2022/05/29 01:35:45;;;;;;;0.10;0.10;;;;;;;;;;5062649;28;20245;-64
2022/05/29 01:38:21;;;;;;;0.10;0.10;;;;;;;;;;5083446;28;20419;-64
2022/05/29 01:40:50;;;;;;;0.00;0.00;;;;;;;;;;5063537;28;20286;-62
2022/05/29 01:43:20;;;;;;;0.10;0.10;;;;;;;;;;5081681;28;20261;-63
2022/05/29 01:45:56;;;;;;;0.10;0.10;;;;;;;;;;5063263;28;20241;-63
2022/05/29 01:48:40;;;;;;;0.10;0.10;;;;;;;;;;5080549;28;20217;-63
2022/05/29 01:51:08;;;;;;;0.10;0.10;;;;;;;;;;5068557;28;20568;-63
2022/05/29 01:53:36;;;;;;;0.10;0.10;;;;;;;;;;5077085;28;20207;-64
2022/05/29 01:56:05;;;;;;;0.10;0.10;;;;;;;;;;5067642;28;20422;-63
2022/05/29 01:58:36;;;;;;;0.10;0.10;;;;;;;;;;5078007;28;20206;-64
2022/05/29 02:01:04;;;;;;;0.10;0.10;;;;;;;;;;5067362;28;20431;-64
2022/05/29 02:03:33;;;;;;;0.10;0.10;;;;;;;;;;5078257;28;20211;-64
2022/05/29 02:06:01;;;;;;;0.10;0.10;;;;;;;;;;5066278;28;20254;-64
2022/05/29 02:08:31;;;;;;;0.10;0.10;;;;;;;;;;5078892;28;20218;-63
2022/05/29 02:10:58;;;;;;;0.10;0.10;;;;;;;;;;5066108;28;20238;-64
2022/05/29 02:13:26;;;;;;;0.10;0.10;;;;;;;;;;5079475;28;20256;-64
2022/05/29 02:15:57;;;;;;;0.10;0.10;;;;;;;;;;5064753;28;20239;-64
2022/05/29 02:18:28;;;;;;;0.10;0.10;;;;;;;;;;5079834;28;20397;-64
2022/05/29 02:20:57;;;;;;;0.10;0.10;;;;;;;;;;5064982;28;20403;-64
2022/05/29 02:23:28;;;;;;;0.10;0.10;;;;;;;;;;5079849;28;20512;-65
2022/05/29 02:25:54;;;;;;;0.10;0.10;;;;;;;;;;5064532;28;20246;-64
2022/05/29 02:28:25;;;;;;;0.10;0.10;;;;;;;;;;5080256;28;20229;-65
2022/05/29 02:30:54;;;;;;;0.10;0.10;;;;;;;;;;5064225;28;20333;-64
2022/05/29 02:33:25;;;;;;;0.10;0.10;;;;;;;;;;5080541;28;20301;-65
2022/05/29 02:35:55;;;;;;;0.10;0.10;;;;;;;;;;5064092;28;20388;-64
2022/05/29 02:38:25;;;;;;;0.10;0.10;;;;;;;;;;5080074;28;20513;-65
2022/05/29 02:40:54;;;;;;;0.10;0.10;;;;;;;;;;5064098;28;20300;-64
2022/05/29 02:43:23;;;;;;;0.10;0.10;;;;;;;;;;5080188;28;20285;-64
2022/05/29 02:45:51;;;;;;;0.10;0.10;;;;;;;;;;5063177;28;20444;-64
2022/05/29 02:48:22;;;;;;;0.10;0.10;;;;;;;;;;5081432;28;20209;-65
2022/05/29 02:50:53;;;;;;;0.10;0.10;;;;;;;;;;5063127;28;20246;-65
2022/05/29 02:53:19;;;;;;;0.10;0.10;;;;;;;;;;5080748;28;20210;-66
2022/05/29 02:55:46;;;;;;;0.10;0.10;;;;;;;;;;5065253;28;20366;-63
2022/05/29 02:58:18;;;;;;;0.10;0.10;;;;;;;;;;5086078;28;20396;-64
2022/05/29 03:00:51;;;;;;;0.10;0.10;;;;;;;;;;5065244;28;20323;-64
2022/05/29 03:03:22;;;;;;;0.10;0.10;;;;;;;;;;5084518;28;20227;-65
2022/05/29 03:05:54;;;;;;;0.10;0.10;;;;;;;;;;5066263;28;20585;-65
2022/05/29 03:08:32;;;;;;;0.10;0.10;;;;;;;;;;5083771;28;20218;-64
2022/05/29 03:11:02;;;;;;;0.10;0.10;;;;;;;;;;5069019;28;20239;-64
2022/05/29 03:13:32;;;;;;;0.10;0.10;;;;;;;;;;5081383;28;20256;-65
2022/05/29 03:16:01;;;;;;;0.10;0.10;;;;;;;;;;5068802;28;20270;-64
2022/05/29 03:18:35;;;;;;;0.10;0.10;;;;;;;;;;5081844;28;20208;-64
2022/05/29 03:21:05;;;;;;;0.10;0.10;;;;;;;;;;5069488;28;20240;-63
2022/05/29 03:23:35;;;;;;;0.10;0.10;;;;;;;;;;5080511;28;20513;-63
2022/05/29 03:26:03;;;;;;;0.10;0.10;;;;;;;;;;5069471;28;20577;-64
2022/05/29 03:28:31;;;;;;;0.10;0.10;;;;;;;;;;5080992;28;20408;-64
2022/05/29 03:30:58;;;;;;;0.10;0.10;;;;;;;;;;5068410;28;20286;-63
2022/05/29 03:33:25;;;;;;;0.10;0.10;;;;;;;;;;5081852;28;20208;-63
2022/05/29 03:36:07;;;;;;;0.10;0.10;;;;;;;;;;5066356;28;20246;-65
2022/05/29 03:38:33;;;;;;;0.10;0.10;;;;;;;;;;5080041;28;20218;-64
2022/05/29 03:40:59;;;;;;;0.10;0.10;;;;;;;;;;5068469;28;20238;-63
2022/05/29 03:43:26;;;;;;;0.10;0.10;;;;;;;;;;5081753;28;20250;-64
2022/05/29 03:45:52;;;;;;;0.10;0.10;;;;;;;;;;5066421;28;20257;-64
2022/05/29 03:48:21;;;;;;;0.10;0.10;;;;;;;;;;5083396;28;20253;-64
2022/05/29 03:50:47;;;;;;;0.10;0.10;;;;;;;;;;5065031;28;20565;-65
2022/05/29 03:53:15;;;;;;;0.10;0.10;;;;;;;;;;5084683;28;20215;-64
2022/05/29 03:55:41;;;;;;;0.10;0.10;;;;;;;;;;5062132;28;20247;-65
2022/05/29 03:58:07;;;;;;;0.10;0.10;;;;;;;;;;5087185;28;20253;-63
2022/05/29 04:00:33;;;;;;;0.10;0.10;;;;;;;;;;5061155;28;20238;-65
2022/05/29 04:03:01;;;;;;;0.10;0.10;;;;;;;;;;5088089;28;20208;-64
2022/05/29 04:05:28;;;;;;;0.10;0.10;;;;;;;;;;5057840;28;20507;-64
2022/05/29 04:13:25;;;;;;;0.10;0.10;;;;;;;;;;5081249;28;20210;-64
2022/05/29 04:15:53;;;;;;;0.10;0.10;;;;;;;;;;5065882;28;20284;-64
2022/05/29 04:18:20;;;;;;;0.10;0.10;;;;;;;;;;5082669;28;20246;-64
2022/05/29 04:20:50;;;;;;;0.10;0.10;;;;;;;;;;5064622;28;20238;-64
2022/05/29 04:23:16;;;;;;;0.10;0.10;;;;;;;;;;5082846;28;20221;-63
2022/05/29 04:25:44;;;;;;;0.10;0.10;;;;;;;;;;5063253;28;20238;-64
2022/05/29 04:28:10;;;;;;;0.10;0.10;;;;;;;;;;5085172;28;20226;-64
2022/05/29 04:30:37;;;;;;;0.10;0.10;;;;;;;;;;5061588;28;20304;-64
2022/05/29 04:33:03;;;;;;;0.10;0.10;;;;;;;;;;5086551;28;20237;-65
2022/05/29 04:35:31;;;;;;;0.10;0.10;;;;;;;;;;5059284;28;20239;-64
2022/05/29 04:37:58;;;;;;;0.10;0.10;;;;;;;;;;5088336;28;20431;-64
2022/05/29 04:40:24;;;;;;;0.10;0.10;;;;;;;;;;5058205;28;20466;-63
2022/05/29 04:42:51;;;;;;;0.10;0.10;;;;;;;;;;5090040;28;20424;-64
2022/05/29 04:45:18;;;;;;;0.10;0.10;;;;;;;;;;5056097;28;20227;-64
2022/05/29 04:47:44;;;;;;;0.10;0.10;;;;;;;;;;5091421;28;20235;-65
2022/05/29 04:50:10;;;;;;;0.10;0.10;;;;;;;;;;5054333;28;20431;-64
2022/05/29 04:52:37;;;;;;;0.10;0.10;;;;;;;;;;5093574;28;20246;-64
2022/05/29 04:55:04;;;;;;;0.10;0.10;;;;;;;;;;5062817;28;20223;-64
2022/05/29 04:57:30;;;;;;;0.10;0.10;;;;;;;;;;5051244;28;20204;-64
2022/05/29 04:59:58;;;;;;;0.10;0.10;;;;;;;;;;5062841;28;20212;-64
2022/05/29 05:02:24;;;;;;;0.10;0.10;;;;;;;;;;5084814;28;20238;-63
2022/05/29 05:04:51;;;;;;;0.10;0.10;;;;;;;;;;5062917;28;20449;-64
2022/05/29 05:07:17;;;;;;;0.10;0.10;;;;;;;;;;5084477;28;20243;-66
2022/05/29 05:09:43;;;;;;;0.10;0.10;;;;;;;;;;5062580;28;20246;-65
2022/05/29 05:12:10;;;;;;;0.10;0.10;;;;;;;;;;5084504;28;20287;-64
2022/05/29 05:14:36;;;;;;;0.10;0.10;;;;;;;;;;5062385;28;20246;-64
2022/05/29 05:17:04;;;;;;;0.10;0.10;;;;;;;;;;5083031;28;20235;-64
2022/05/29 05:19:30;;;;;;;0.10;0.10;;;;;;;;;;5062947;28;20207;-64
2022/05/29 05:21:56;;;;;;;0.10;0.10;;;;;;;;;;5082038;28;20264;-63
2022/05/29 05:24:23;;;;;;;0.10;0.10;;;;;;;;;;5064273;28;20204;-64
2022/05/29 05:26:49;;;;;;;0.10;0.10;;;;;;;;;;5079714;28;20238;-64
2022/05/29 05:29:17;;;;;;;0.10;0.10;;;;;;;;;;5066112;28;20204;-65
2022/05/29 05:31:43;;;;;;;0.10;0.10;;;;;;;;;;5078166;28;20303;-64
2022/05/29 05:34:10;;;;;;;0.10;0.10;;;;;;;;;;5067754;28;20538;-64
2022/05/29 05:36:37;;;;;;;0.10;0.10;;;;;;;;;;5076685;28;20578;-64
2022/05/29 05:39:03;;;;;;;0.10;0.10;;;;;;;;;;5069608;28;20211;-64
2022/05/29 05:41:30;;;;;;;0.10;0.10;;;;;;;;;;5074638;28;20238;-63
2022/05/29 05:43:56;;;;;;;0.10;0.10;;;;;;;;;;5071631;28;20332;-64
2022/05/29 05:46:22;;;;;;;0.10;0.10;;;;;;;;;;5072389;28;20242;-63
2022/05/29 05:48:49;;;;;;;0.10;0.10;;;;;;;;;;5073695;28;20204;-64
2022/05/29 05:51:19;;;;;;;0.10;0.10;;;;;;;;;;5070768;28;20351;-64
2022/05/29 05:53:45;;;;;;;0.10;0.10;;;;;;;;;;5074308;28;20235;-64
2022/05/29 05:56:12;;;;;;;0.10;0.10;;;;;;;;;;5069741;28;20480;-64
2022/05/29 05:58:39;;;;;;;0.10;0.10;;;;;;;;;;5075743;28;20241;-63
2022/05/29 06:01:05;;;;;;;0.10;0.10;;;;;;;;;;5068016;28;20363;-65
2022/05/29 06:03:32;;;;;;;1.13;1.13;;;;;;;;;;5077828;28;20207;-64
2022/05/29 06:05:58;;;;;;;0.10;0.10;;;;;;;;;;5066118;28;20234;-64
2022/05/29 06:08:26;;;;;;;0.03;0.03;;;;;;;;;;5079333;28;20305;-63
2022/05/29 06:10:52;;;;;;;0.10;0.10;;;;;;;;;;5064728;28;20417;-64
2022/05/29 06:13:18;;;;;;;0.10;0.10;;;;;;;;;;5080952;28;20215;-64
2022/05/29 06:15:46;;;;;;;0.10;0.10;;;;;;;;;;5062287;28;20241;-63
2022/05/29 06:18:12;;;;;;;0.10;0.10;;;;;;;;;;5082620;28;20228;-63
2022/05/29 06:20:38;;;;;;;0.10;0.10;;;;;;;;;;5060955;28;20577;-64
2022/05/29 06:23:05;;;;;;;0.10;0.10;;;;;;;;;;5084862;28;20259;-67
2022/05/29 06:25:33;;;;;;;0.10;0.10;;;;;;;;;;5059333;28;20247;-64
2022/05/29 06:28:01;;;;;;;0.10;0.10;;;;;;;;;;5087199;28;20470;-64
2022/05/29 06:30:28;;;;;;;0.10;0.10;;;;;;;;;;5061503;28;21987;-64
2022/05/29 06:32:55;;;;;;;0.10;0.10;;;;;;;;;;5092081;28;20204;-64
2022/05/29 06:35:21;;;;;;;0.10;0.10;;;;;;;;;;5059767;28;20294;-65
2022/05/29 06:37:47;;;;;;;0.10;0.10;;;;;;;;;;5093588;28;20249;-65
2022/05/29 06:40:14;;;;;;;0.10;0.10;;;;;;;;;;5057581;28;20204;-64
2022/05/29 06:42:41;;;;;;;0.10;0.10;;;;;;;;;;5094953;28;20206;-65
2022/05/29 06:45:09;;;;;;;0.10;0.10;;;;;;;;;;5055836;28;20278;-64
2022/05/29 06:47:35;;;;;;;0.10;0.10;;;;;;;;;;5096394;28;20425;-64
2022/05/29 06:50:01;;;;;;;0.10;0.10;;;;;;;;;;5065117;28;20249;-63
2022/05/29 06:52:29;;;;;;;0.10;0.10;;;;;;;;;;5087436;28;20289;-63
2022/05/29 06:54:55;;;;;;;0.10;0.10;;;;;;;;;;5065283;28;20502;-64
2022/05/29 07:08:15;;;;;;;0.10;0.10;;;;;;;;;;5085043;28;20461;-64
2022/05/29 07:10:41;;;;;;;0.10;0.10;;;;;;;;;;5064605;28;20316;-64
2022/05/29 07:13:07;;;;;;;0.10;0.10;;;;;;;;;;5087201;28;20496;-64
2022/05/29 07:15:35;;;;;;;0.10;0.10;;;;;;;;;;5062476;28;20253;-64
2022/05/29 07:18:01;;;;;;;0.10;0.10;;;;;;;;;;5088938;28;20250;-63
2022/05/29 07:20:28;;;;;;;0.10;0.10;;;;;;;;;;5060850;28;20246;-64
2022/05/29 07:22:56;;;;;;;0.10;0.10;;;;;;;;;;5090069;28;20212;-64
2022/05/29 07:25:22;;;;;;;0.10;0.10;;;;;;;;;;5059143;28;20205;-65
2022/05/29 07:27:49;;;;;;;0.10;0.10;;;;;;;;;;5091744;28;20287;-64
2022/05/29 07:30:15;;;;;;;0.10;0.10;;;;;;;;;;5057285;28;20211;-65
2022/05/29 07:32:43;;;;;;;0.10;0.10;;;;;;;;;;5093917;28;20242;-64
2022/05/29 07:35:09;;;;;;;0.10;0.10;;;;;;;;;;5055535;28;20204;-65
2022/05/29 07:37:35;;;;;;;0.10;0.10;;;;;;;;;;5095411;28;20248;-65
2022/05/29 07:40:02;;;;;;;0.10;0.10;;;;;;;;;;5063548;28;20208;-65
2022/05/29 07:45:12;;;;;;;0.10;0.10;;;;;;;;;;5056115;28;20207;-65
2022/05/29 07:47:41;;;;;;;0.10;0.10;;;;;;;;;;5094120;28;20224;-65
2022/05/29 07:50:10;;;;;;;0.10;0.10;;;;;;;;;;5054816;28;20466;-64
2022/05/29 07:52:36;;;;;;;0.10;0.10;;;;;;;;;;5095014;28;20210;-65
2022/05/29 07:55:02;;;;;;;0.10;0.10;;;;;;;;;;5064239;28;20257;-64
2022/05/29 07:57:28;;;;;;;0.10;0.10;;;;;;;;;;5085947;28;20236;-64
2022/05/29 07:59:55;;;;;;;0.10;0.10;;;;;;;;;;5063868;28;20218;-64
2022/05/29 08:02:21;;;;;;;0.10;0.10;;;;;;;;;;5085691;28;20585;-65
2022/05/29 08:04:47;;;;;;;0.10;0.10;;;;;;;;;;5063715;28;20205;-66
2022/05/29 08:07:16;;;;;;;0.10;0.10;;;;;;;;;;5085625;28;20235;-64
2022/05/29 08:09:42;;;;;;;0.10;0.10;;;;;;;;;;5063388;28;20205;-64
2022/05/29 08:12:09;;;;;;;0.10;0.10;;;;;;;;;;5085721;28;20248;-64
2022/05/29 08:14:35;;;;;;;0.10;0.10;;;;;;;;;;5063872;28;20499;-64
2022/05/29 08:17:01;;;;;;;0.10;0.10;;;;;;;;;;5084382;28;20484;-65
2022/05/29 08:19:28;;;;;;;0.10;0.10;;;;;;;;;;5064585;28;20228;-64
2022/05/29 08:21:54;;;;;;;0.10;0.10;;;;;;;;;;5082486;28;20253;-64
2022/05/29 08:32:35;;;;;;;0.10;0.10;;;;;;;;;;5051784;28;20205;-65
2022/05/29 08:35:01;;;;;;;0.10;0.10;;;;;;;;;;5063081;28;20514;-65
2022/05/29 08:37:28;;;;;;;0.10;0.10;;;;;;;;;;5085064;28;20236;-64
2022/05/29 08:39:55;;;;;;;0.10;0.10;;;;;;;;;;5062984;28;20225;-65
2022/05/29 08:42:24;;;;;;;0.00;0.00;;;;;;;;;;5085134;28;20286;-65
2022/05/29 08:44:51;;;;;;;0.10;0.10;;;;;;;;;;5063169;28;20285;-65
2022/05/29 08:47:21;;;;;;;0.10;0.10;;;;;;;;;;5084907;28;20237;-67
2022/05/29 08:49:48;;;;;;;0.10;0.10;;;;;;;;;;5063179;28;20212;-65
2022/05/29 08:52:21;;;;;;;0.10;0.10;;;;;;;;;;5083939;28;20549;-65
2022/05/29 08:54:49;;;;;;;0.10;0.10;;;;;;;;;;5063058;28;20239;-64
2022/05/29 08:57:23;;;;;;;0.10;0.10;;;;;;;;;;5084683;28;20315;-64
2022/05/29 08:59:51;;;;;;;0.10;0.10;;;;;;;;;;5063039;28;20200;-65
2022/05/29 09:02:23;;;;;;;0.10;0.10;;;;;;;;;;5084727;28;20244;-64
2022/05/29 09:04:53;;;;;;;0.10;0.10;;;;;;;;;;5062909;28;20196;-65
2022/05/29 09:07:22;;;;;;;0.10;0.10;;;;;;;;;;5084612;28;20249;-65
2022/05/29 09:09:51;;;;;;;0.10;0.10;;;;;;;;;;5063225;28;20282;-64
2022/05/29 09:12:22;;;;;;;0.10;0.10;;;;;;;;;;5085364;28;20242;-64
2022/05/29 09:14:51;;;;;;;0.10;0.10;;;;;;;;;;5063482;28;20203;-65
2022/05/29 09:17:21;;;;;;;0.07;0.07;;;;;;;;;;5085211;28;20253;-65
2022/05/29 09:19:49;;;;;;;0.10;0.10;;;;;;;;;;5063073;28;20255;-65
2022/05/29 09:22:18;;;;;;;0.10;0.10;;;;;;;;;;5085250;28;20289;-65
2022/05/29 09:24:48;;;;;;;0.10;0.10;;;;;;;;;;5063192;28;20214;-65
2022/05/29 09:27:17;;;;;;;0.10;0.10;;;;;;;;;;5084974;28;20253;-64
2022/05/29 09:29:44;;;;;;;0.10;0.10;;;;;;;;;;5063438;28;20393;-64
2022/05/29 09:32:14;;;;;;;0.10;0.10;;;;;;;;;;5085202;28;20241;-64
2022/05/29 09:34:40;;;;;;;0.10;0.10;;;;;;;;;;5063031;28;20217;-65
2022/05/29 09:37:11;;;;;;;0.10;0.10;;;;;;;;;;5085077;28;20238;-65
2022/05/29 09:39:39;;;;;;;0.10;0.10;;;;;;;;;;5063017;28;20260;-64
2022/05/29 09:42:07;;;;;;;0.10;0.10;;;;;;;;;;5084866;28;20260;-66
2022/05/29 09:44:34;;;;;;;0.10;0.10;;;;;;;;;;5062920;28;20206;-65
2022/05/29 09:49:42;;;;;;;0.10;0.10;;;;;;;;;;5062830;28;20245;-65
2022/05/29 09:52:11;;;;;;;0.10;0.10;;;;;;;;;;5085083;28;20602;-65
2022/05/29 09:54:45;;;;;;;0.10;0.10;;;;;;;;;;5063192;28;20206;-87
2022/05/29 09:57:15;;;;;;;0.10;0.10;;;;;;;;;;5085584;28;20249;-86
2022/05/29 09:59:48;;;;;;;0.10;0.10;;;;;;;;;;5064049;28;20263;-87
2022/05/29 10:02:26;;;;;;;0.10;0.10;;;;;;;;;;5034649;28;20355;-86
2022/05/29 10:05:02;;;;;;;0.10;0.10;;;;;;;;;;5045039;28;20283;-87
2022/05/29 10:07:36;;;;;;;0.10;0.10;;;;;;;;;;5035756;28;20242;-88
2022/05/29 10:10:09;;;;;;;0.10;0.10;;;;;;;;;;5046892;28;20261;-85
2022/05/29 10:12:40;;;;;;;0.10;0.10;;;;;;;;;;5018371;28;20205;-84
2022/05/29 10:15:12;;;;;;;0.10;0.10;;;;;;;;;;5033584;28;20453;-65
2022/05/29 10:17:40;;;;;;;0.10;0.10;;;;;;;;;;5043580;28;20219;-68
2022/05/29 10:20:25;;;;;;;0.10;0.10;;;;;;;;;;5035002;28;20207;-67
2022/05/29 10:22:52;;;;;;;0.10;0.10;;;;;;;;;;5043433;28;20266;-67
2022/05/29 10:25:21;;;;;;;0.10;0.10;;;;;;;;;;5033467;28;20208;-66
2022/05/29 10:27:47;;;;;;;0.03;0.03;;;;;;;;;;5059445;28;20239;-66
2022/05/29 10:30:27;;;;;;;0.10;0.10;;;;;;;;;;5057979;28;20528;-65
2022/05/29 10:33:00;;;;;;;0.10;0.10;;;;;;;;;;5092102;28;20214;-66
2022/05/29 10:35:27;;;;;;;0.10;0.10;;;;;;;;;;5061135;28;20288;-66
2022/05/29 10:37:54;;;;;;;0.10;0.10;;;;;;;;;;5091753;28;20213;-66
2022/05/29 10:40:22;;;;;;;0.10;0.10;;;;;;;;;;5059261;28;20211;-67
2022/05/29 10:42:50;;;;;;;0.10;0.10;;;;;;;;;;5092857;28;20265;-66
2022/05/29 10:45:20;;;;;;;0.10;0.10;;;;;;;;;;5058271;28;20228;-67
2022/05/29 10:47:54;;;;;;;0.10;0.10;;;;;;;;;;5093390;28;20213;-66
2022/05/29 10:50:24;;;;;;;0.10;0.10;;;;;;;;;;5059302;28;20274;-67
2022/05/29 10:52:56;;;;;;;0.10;0.10;;;;;;;;;;5092689;28;20222;-65
2022/05/29 10:55:28;;;;;;;0.10;0.10;;;;;;;;;;5059570;28;20244;-66
2022/05/29 10:58:09;;;;;;;0.10;0.10;;;;;;;;;;5091289;28;20217;-66
2022/05/29 11:00:44;;;;;;;0.10;0.10;;;;;;;;;;5061062;28;20576;-65
2022/05/29 11:03:24;;;;;;;0.10;0.10;;;;;;;;;;5086787;28;20253;-65
2022/05/29 11:06:05;;;;;;;0.10;0.10;;;;;;;;;;5064937;28;20329;-66
2022/05/29 11:08:38;;;;;;;0.10;0.10;;;;;;;;;;5039842;28;20594;-66
2022/05/29 11:11:10;;;;;;;0.10;0.10;;;;;;;;;;5070637;28;20241;-65
2022/05/29 11:13:49;;;;;;;0.10;0.10;;;;;;;;;;5079646;28;20199;-65
2022/05/29 11:16:19;;;;;;;0.10;0.10;;;;;;;;;;5072414;28;20238;-66
2022/05/29 11:19:01;;;;;;;0.10;0.10;;;;;;;;;;5077406;28;20262;-67
2022/05/29 11:21:33;;;;;;;0.10;0.10;;;;;;;;;;5075397;28;20238;-66
2022/05/29 11:24:17;;;;;;;0.10;0.10;;;;;;;;;;5073015;28;20262;-67
2022/05/29 11:26:51;;;;;;;0.00;0.00;;;;;;;;;;5080534;28;20476;-66
2022/05/29 11:29:34;;;;;;;0.00;0.00;;;;;;;;;;5068583;28;20286;-67
2022/05/29 11:32:06;;;;;;;0.10;0.10;;;;;;;;;;5083889;28;20476;-66
2022/05/29 11:34:35;;;;;;;0.00;0.00;;;;;;;;;;5064747;28;20502;-66
2022/05/29 11:37:12;;;;;;;0.10;0.10;;;;;;;;;;5085541;28;20251;-66
2022/05/29 11:39:41;;;;;;;0.10;0.10;;;;;;;;;;5064713;28;20189;-65
2022/05/29 11:42:14;;;;;;;0.10;0.10;;;;;;;;;;5086637;28;20307;-66
2022/05/29 11:44:43;;;;;;;0.00;0.00;;;;;;;;;;5064105;28;20274;-66
2022/05/29 11:52:57;;;;;;;0.10;0.10;;;;;;;;;;5090266;28;20269;-66
2022/05/29 11:55:24;;;;;;;0.00;0.00;;;;;;;;;;5058848;28;20262;-65
2022/05/29 11:57:54;;;;;;;0.00;0.00;;;;;;;;;;5090524;28;20232;-66
2022/05/29 12:00:26;;;;;;;0.00;0.00;;;;;;;;;;5056981;28;20221;-65
2022/05/29 12:02:56;;;;;;;0.00;0.00;;;;;;;;;;5091422;28;20223;-65
2022/05/29 12:05:27;;;;;;;0.10;0.10;;;;;;;;;;5058370;28;20207;-65
2022/05/29 12:07:56;;;;;;;0.10;0.10;;;;;;;;;;5089870;28;20255;-65
2022/05/29 12:10:23;;;;;;;0.10;0.10;;;;;;;;;;5058386;28;20257;-65
2022/05/29 12:12:56;;;;;;;0.10;0.10;;;;;;;;;;5090785;28;20212;-66
2022/05/29 12:15:22;;;;;;;0.03;0.03;;;;;;;;;;5058314;28;20314;-66
2022/05/29 12:17:51;;;;;;;0.10;0.10;;;;;;;;;;5090930;28;20210;-66
2022/05/29 12:20:20;;;;;;;0.10;0.10;;;;;;;;;;5057046;28;20527;-66
2022/05/29 12:22:48;;;;;;;0.10;0.10;;;;;;;;;;5091320;28;20221;-66
2022/05/29 12:25:22;;;;;;;0.10;0.10;;;;;;;;;;5056320;28;20403;-65
2022/05/29 12:27:49;;;;;;;0.10;0.10;;;;;;;;;;5090559;28;20228;-65
2022/05/29 12:30:20;;;;;;;0.10;0.10;;;;;;;;;;5055907;28;20295;-66
2022/05/29 12:32:46;;;;;;;0.10;0.10;;;;;;;;;;5091574;28;20494;-66
2022/05/29 12:35:16;;;;;;;0.10;0.10;;;;;;;;;;5055510;28;20218;-66
2022/05/29 12:37:50;;;;;;;0.00;0.00;;;;;;;;;;5092369;28;20209;-66
2022/05/29 12:40:32;;;;;;;0.10;0.10;;;;;;;;;;5056329;28;20270;-66
2022/05/29 12:43:19;;;;;;;0.10;0.10;;;;;;;;;;5088047;28;20204;-66
2022/05/29 12:45:52;;;;;;;0.10;0.10;;;;;;;;;;5060371;28;20249;-66
2022/05/29 12:48:45;;;;;;;0.10;0.10;;;;;;;;;;5082562;28;20227;-66
2022/05/29 12:51:20;;;;;;;0.00;0.00;;;;;;;;;;5070879;28;20239;-66
2022/05/29 12:54:03;;;;;;;0.10;0.10;;;;;;;;;;5074579;28;20211;-65
2022/05/29 12:56:35;;;;;;;0.10;0.10;;;;;;;;;;5075556;28;20248;-66
2022/05/29 12:59:13;;;;;;;0.00;0.00;;;;;;;;;;5070728;28;20190;-66
2022/05/29 13:01:53;;;;;;;0.10;0.10;;;;;;;;;;5078182;28;20348;-65
2022/05/29 13:04:38;;;;;;;0.10;0.10;;;;;;;;;;5065765;28;20185;-65
2022/05/29 13:07:21;;;;;;;0.10;0.10;;;;;;;;;;5084749;28;20258;-65
2022/05/29 13:10:06;;;;;;;0.10;0.10;;;;;;;;;;5062868;28;20239;-66
2022/05/29 13:12:34;;;;;;;0.10;0.10;;;;;;;;;;5051161;28;20234;-65
2022/05/29 13:15:04;;;;;;;0.10;0.10;;;;;;;;;;5062823;28;20230;-65
2022/05/29 13:17:33;;;;;;;0.10;0.10;;;;;;;;;;5051494;28;20434;-65
2022/05/29 13:20:01;;;;;;;0.10;0.10;;;;;;;;;;5062797;28;20278;-65
2022/05/29 13:22:46;;;;;;;0.10;0.10;;;;;;;;;;5084379;28;20250;-65
2022/05/29 13:25:13;;;;;;;0.10;0.10;;;;;;;;;;5054563;28;20205;-65
2022/05/29 13:27:40;;;;;;;0.10;0.10;;;;;;;;;;5092093;28;20254;-65
2022/05/29 13:30:07;;;;;;;0.00;0.00;;;;;;;;;;5053129;28;20281;-64
2022/05/29 13:32:35;;;;;;;0.10;0.10;;;;;;;;;;5093827;28;20386;-64
2022/05/29 13:35:20;;;;;;;0.10;0.10;;;;;;;;;;5062332;28;20207;-64
2022/05/29 13:37:47;;;;;;;0.10;0.10;;;;;;;;;;5061308;28;20198;-68
2022/05/29 13:40:28;;;;;;;0.10;0.10;;;;;;;;;;5054605;28;20211;-65
2022/05/29 13:42:56;;;;;;;0.10;0.10;;;;;;;;;;5087640;28;20204;-66
2022/05/29 13:45:40;;;;;;;0.10;0.10;;;;;;;;;;5054110;28;20387;-66
2022/05/29 13:48:18;;;;;;;0.10;0.10;;;;;;;;;;5087797;28;20311;-65
2022/05/29 13:50:48;;;;;;;0.10;0.10;;;;;;;;;;5062774;28;20591;-65
2022/05/29 13:53:21;;;;;;;0.10;0.10;;;;;;;;;;5082751;28;20211;-65
2022/05/29 13:55:53;;;;;;;0.10;0.10;;;;;;;;;;5060653;28;20252;-66
2022/05/29 14:04:23;;;;;;;0.10;0.10;;;;;;;;;;5072958;28;20258;-82
2022/05/29 14:07:08;;;;;;;0.10;0.10;;;;;;;;;;5036538;28;20358;-81
2022/05/29 14:09:40;;;;;;;0.10;0.10;;;;;;;;;;5039790;28;20234;-83
2022/05/29 14:12:13;;;;;;;0.10;0.10;;;;;;;;;;5028060;28;20244;-81
2022/05/29 14:14:48;;;;;;;0.10;0.10;;;;;;;;;;5039868;28;20253;-80
2022/05/29 14:17:19;;;;;;;0.10;0.10;;;;;;;;;;5027666;28;20244;-80
2022/05/29 14:19:55;;;;;;;0.10;0.10;;;;;;;;;;5040364;28;20225;-82
2022/05/29 14:25:37;;;;;;;;;;;;;;;;;;;;;
2022/05/29 14:28:14;;;;;;;0.10;0.10;;;;;;;;;;5038227;28;20213;-81
2022/05/29 14:31:04;;;;;;;0.10;0.10;;;;;;;;;;5025117;28;20252;-82
2022/05/29 14:33:57;;;;;;;0.10;0.10;;;;;;;;;;5012643;28;20356;-81
2022/05/29 14:36:32;;;;;;;0.10;0.10;;;;;;;;;;5026008;28;20551;-82
2022/05/29 14:39:17;;;;;;;0.10;0.10;;;;;;;;;;5040189;28;20250;-81
2022/05/29 14:41:46;;;;;;;0.10;0.10;;;;;;;;;;5029734;28;20444;-85
2022/05/29 14:44:22;;;;;;;0.10;0.10;;;;;;;;;;5040777;28;20229;-85
2022/05/29 14:46:56;;;;;;;0.10;0.10;;;;;;;;;;5030958;28;20248;-86
2022/05/29 14:49:27;;;;;;;0.07;0.07;;;;;;;;;;5041252;28;20228;-84
2022/05/29 14:51:57;;;;;;;0.10;0.10;;;;;;;;;;5032955;28;20246;-83
2022/05/29 14:54:26;;;;;;;0.10;0.10;;;;;;;;;;5044753;28;20197;-84
2022/05/29 14:56:57;;;;;;;0.10;0.10;;;;;;;;;;5033740;28;20251;-85
2022/05/29 14:59:30;;;;;;;0.10;0.10;;;;;;;;;;5061801;28;20235;-84
2022/05/29 15:01:58;;;;;;;0.10;0.10;;;;;;;;;;5085503;28;20563;-84
2022/05/29 15:04:28;;;;;;;0.00;0.00;;;;;;;;;;5067852;28;20208;-84
2022/05/29 15:12:29;;;;;;;0.10;0.10;;;;;;;;;;5087712;28;20512;-85
2022/05/29 15:15:19;;;;;;;0.00;0.00;;;;;;;;;;5065474;28;20200;-83
2022/05/29 15:17:45;;;;;;;0.10;0.10;;;;;;;;;;5065476;28;20509;-83
2022/05/29 15:26:04;;;;;;;0.10;0.10;;;;;;;;;;5066873;28;20264;-83
2022/05/29 15:28:41;;;;;;;0.10;0.10;;;;;;;;;;5081054;28;20271;-83
2022/05/29 15:31:12;;;;;;;0.00;0.00;;;;;;;;;;5070595;28;20588;-84
2022/05/29 15:33:45;;;;;;;0.10;0.10;;;;;;;;;;5078808;28;20243;-82
2022/05/29 15:42:37;;;;;;;0.00;0.00;;;;;;;;;;4931137;28;20512;-82
2022/05/29 15:45:44;;;;;;;0.10;0.10;;;;;;;;;;5022511;28;20256;-84
2022/05/29 15:49:13;;;;;;;0.10;0.10;;;;;;;;;;5021985;28;20400;-83
2022/05/29 15:51:48;;;;;;;0.03;0.03;;;;;;;;;;5025200;28;20305;-86
2022/05/29 15:54:51;;;;;;;0.00;0.00;;;;;;;;;;5024777;28;20201;-84
2022/05/29 15:57:33;;;;;;;0.10;0.10;;;;;;;;;;4993549;28;20243;-83
2022/05/29 16:02:58;;;;;;;0.10;0.10;;;;;;;;;;5000027;28;20208;-84
2022/05/29 16:05:26;;;;;;;0.10;0.10;;;;;;;;;;4992306;28;20209;-82
2022/05/29 16:07:55;;;;;;;0.10;0.10;;;;;;;;;;5024660;28;20517;-84